createdAt,value
2019-03-30T00:00:38.224Z,1.57
2019-03-30T00:03:07.452Z,3.45
2019-03-30T00:05:37.002Z,1.87
2019-03-30T00:08:06.378Z,2.35
2019-03-30T00:10:36.194Z,1.72
2019-03-30T00:13:06.131Z,1.80
2019-03-30T00:15:35.316Z,3.83
2019-03-30T00:18:04.555Z,3.20
2019-03-30T00:20:34.539Z,1.90
2019-03-30T00:23:03.895Z,1.92
2019-03-30T00:25:33.203Z,2.92
2019-03-30T00:28:02.226Z,3.37
2019-03-30T00:30:32.804Z,2.02
2019-03-30T00:33:03.938Z,2.10
2019-03-30T00:35:32.994Z,4.40
2019-03-30T00:38:02.226Z,2.10
2019-03-30T00:40:31.267Z,3.52
2019-03-30T00:43:00.577Z,3.33
2019-03-30T00:45:29.611Z,3.22
2019-03-30T00:48:01.001Z,2.62
2019-03-30T00:50:30.086Z,4.30
2019-03-30T00:52:59.154Z,1.87
2019-03-30T00:55:28.218Z,1.00
2019-03-30T00:57:57.265Z,5.90
2019-03-30T01:00:26.176Z,2.52
2019-03-30T01:02:55.241Z,3.58
2019-03-30T01:05:24.537Z,2.05
2019-03-30T01:07:53.786Z,1.87
2019-03-30T01:10:23.330Z,2.45
2019-03-30T01:12:52.868Z,1.98
2019-03-30T01:15:22.666Z,3.65
2019-03-30T01:17:51.719Z,2.67
2019-03-30T01:20:20.707Z,2.65
2019-03-30T01:22:49.768Z,2.33
2019-03-30T01:25:21.064Z,3.95
2019-03-30T01:27:50.648Z,4.22
2019-03-30T01:30:23.396Z,3.42
2019-03-30T01:32:50.809Z,2.83
2019-03-30T01:35:19.816Z,3.35
2019-03-30T01:37:49.104Z,4.15
2019-03-30T01:40:18.371Z,2.50
2019-03-30T01:42:47.416Z,3.15
2019-03-30T01:45:16.480Z,4.53
2019-03-30T01:47:47.237Z,2.60
2019-03-30T01:50:18.085Z,4.30
2019-03-30T01:52:47.329Z,3.08
2019-03-30T01:55:16.608Z,2.87
2019-03-30T01:57:45.561Z,1.55
2019-03-30T02:00:16.556Z,7.80
2019-03-30T02:02:45.763Z,2.08
2019-03-30T02:05:15.000Z,3.92
2019-03-30T02:07:44.032Z,2.83
2019-03-30T02:10:13.737Z,3.17
2019-03-30T02:12:42.827Z,5.05
2019-03-30T02:15:12.325Z,6.37
2019-03-30T02:17:41.488Z,7.97
2019-03-30T02:20:13.841Z,6.20
2019-03-30T02:22:43.201Z,6.33
2019-03-30T02:25:12.738Z,6.00
2019-03-30T02:27:45.129Z,6.75
2019-03-30T02:30:14.994Z,4.62
2019-03-30T02:32:43.928Z,5.70
2019-03-30T02:35:12.937Z,1.22
2019-03-30T02:37:41.947Z,2.42
2019-03-30T02:40:11.099Z,2.62
2019-03-30T02:42:40.158Z,3.62
2019-03-30T02:45:09.752Z,2.37
2019-03-30T02:47:38.865Z,36.93
2019-03-30T02:50:08.574Z,18.25
2019-03-30T02:52:37.546Z,5.70
2019-03-30T02:55:12.731Z,1.55
2019-03-30T02:57:41.609Z,5.55
2019-03-30T03:00:13.073Z,2.50
2019-03-30T03:02:42.017Z,7.55
2019-03-30T03:05:11.565Z,5.90
2019-03-30T03:07:40.952Z,5.50
2019-03-30T03:10:10.705Z,2.90
2019-03-30T03:12:39.879Z,1.95
2019-03-30T03:15:09.107Z,9.15
2019-03-30T03:17:38.096Z,1.32
2019-03-30T03:20:08.177Z,0.75
2019-03-30T03:22:37.297Z,1.60
2019-03-30T03:25:07.701Z,1.95
2019-03-30T03:27:36.672Z,1.00
2019-03-30T03:30:06.104Z,0.82
2019-03-30T03:32:35.281Z,1.35
2019-03-30T03:35:04.596Z,1.47
2019-03-30T03:37:44.473Z,0.40
2019-03-30T03:40:07.203Z,1.42
2019-03-30T03:42:36.721Z,2.15
2019-03-30T03:45:09.499Z,1.55
2019-03-30T03:47:38.656Z,2.12
2019-03-30T03:50:08.251Z,0.65
2019-03-30T03:52:38.826Z,0.50
2019-03-30T03:55:08.741Z,1.57
2019-03-30T03:57:40.805Z,0.78
2019-03-30T04:00:10.251Z,2.77
2019-03-30T04:02:39.466Z,2.30
2019-03-30T04:05:09.441Z,4.47
2019-03-30T04:07:45.923Z,1.65
2019-03-30T04:10:16.451Z,3.98
2019-03-30T04:12:47.216Z,1.17
2019-03-30T04:15:25.449Z,1.50
2019-03-30T04:17:54.513Z,1.98
2019-03-30T04:20:24.407Z,1.22
2019-03-30T04:22:54.358Z,1.27
2019-03-30T04:25:23.570Z,4.22
2019-03-30T04:27:52.617Z,3.20
2019-03-30T04:30:22.403Z,1.90
2019-03-30T04:32:51.857Z,2.75
2019-03-30T04:35:20.744Z,2.50
2019-03-30T04:37:49.812Z,5.67
2019-03-30T04:40:18.800Z,6.08
2019-03-30T04:42:47.939Z,4.67
2019-03-30T04:45:17.225Z,5.58
2019-03-30T04:47:46.506Z,1.98
2019-03-30T04:50:16.250Z,3.15
2019-03-30T04:52:45.328Z,3.47
2019-03-30T04:55:14.456Z,2.50
2019-03-30T04:57:43.536Z,3.87
2019-03-30T05:00:13.072Z,4.08
2019-03-30T05:02:42.360Z,3.55
2019-03-30T05:05:11.827Z,5.20
2019-03-30T05:07:40.841Z,6.87
2019-03-30T05:10:10.069Z,4.10
2019-03-30T05:12:39.243Z,3.83
2019-03-30T05:15:08.497Z,3.60
2019-03-30T05:17:47.046Z,5.97
2019-03-30T05:20:09.096Z,1.75
2019-03-30T05:22:41.017Z,5.67
2019-03-30T05:25:10.232Z,8.70
2019-03-30T05:27:39.144Z,1.77
2019-03-30T05:30:09.057Z,5.15
2019-03-30T05:32:41.464Z,5.12
2019-03-30T05:35:09.722Z,5.03
2019-03-30T05:37:38.680Z,5.58
2019-03-30T05:40:08.313Z,1.80
2019-03-30T05:42:37.394Z,4.20
2019-03-30T05:45:09.921Z,3.90
2019-03-30T05:47:39.104Z,3.50
2019-03-30T05:50:08.152Z,4.37
2019-03-30T05:52:37.192Z,4.03
2019-03-30T05:55:07.120Z,3.58
2019-03-30T05:57:36.517Z,3.08
2019-03-30T06:00:08.874Z,4.53
2019-03-30T06:02:38.009Z,1.95
2019-03-30T06:05:07.256Z,4.05
2019-03-30T06:07:36.184Z,2.83
2019-03-30T06:10:06.312Z,2.85
2019-03-30T06:12:35.225Z,4.17
2019-03-30T06:15:05.802Z,3.02
2019-03-30T06:17:34.800Z,3.15
2019-03-30T06:20:04.848Z,5.37
2019-03-30T06:22:40.230Z,4.87
2019-03-30T06:25:05.329Z,5.03
2019-03-30T06:27:34.300Z,4.65
2019-03-30T06:30:17.777Z,5.20
2019-03-30T06:32:46.921Z,5.30
2019-03-30T06:35:16.225Z,5.03
2019-03-30T06:37:45.154Z,5.08
2019-03-30T06:40:14.704Z,3.72
2019-03-30T06:42:43.800Z,3.22
2019-03-30T06:45:13.370Z,2.02
2019-03-30T06:47:42.401Z,3.90
2019-03-30T06:50:12.851Z,2.95
2019-03-30T06:52:56.377Z,2.65
2019-03-30T06:55:12.784Z,1.45
2019-03-30T06:57:41.757Z,1.52
2019-03-30T07:00:12.978Z,3.08
2019-03-30T07:02:43.218Z,1.35
2019-03-30T07:05:12.345Z,2.37
2019-03-30T07:07:44.282Z,4.25
2019-03-30T07:10:14.536Z,4.80
2019-03-30T07:12:43.546Z,1.65
2019-03-30T07:15:13.002Z,1.15
2019-03-30T07:17:46.901Z,2.70
2019-03-30T07:20:26.900Z,3.83
2019-03-30T07:23:10.730Z,3.55
2019-03-30T07:25:27.966Z,5.70
2019-03-30T07:27:56.802Z,3.90
2019-03-30T07:30:27.380Z,2.12
2019-03-30T07:32:56.745Z,2.05
2019-03-30T07:35:25.714Z,6.92
2019-03-30T07:37:55.226Z,5.00
2019-03-30T07:40:24.571Z,2.83
2019-03-30T07:42:53.688Z,5.55
2019-03-30T07:45:23.017Z,1.98
2019-03-30T07:47:52.587Z,1.82
2019-03-30T07:50:22.009Z,3.20
2019-03-30T07:52:51.114Z,3.30
2019-03-30T07:55:23.467Z,1.90
2019-03-30T07:57:53.185Z,5.30
2019-03-30T08:00:30.609Z,1.75
2019-03-30T08:02:56.034Z,2.47
2019-03-30T08:05:25.137Z,1.10
2019-03-30T08:07:55.026Z,2.72
2019-03-30T08:10:23.916Z,2.70
2019-03-30T08:12:53.043Z,4.40
2019-03-30T08:15:22.843Z,1.25
2019-03-30T08:17:54.147Z,6.28
2019-03-30T08:20:23.847Z,5.42
2019-03-30T08:22:53.250Z,3.45
2019-03-30T08:25:22.729Z,6.85
2019-03-30T08:27:54.568Z,2.37
2019-03-30T08:30:24.082Z,1.65
2019-03-30T08:32:52.897Z,1.65
2019-03-30T08:35:22.738Z,3.00
2019-03-30T08:37:53.320Z,5.50
2019-03-30T08:40:22.656Z,3.60
2019-03-30T08:42:51.704Z,3.67
2019-03-30T08:45:20.916Z,1.02
2019-03-30T08:47:51.081Z,5.50
2019-03-30T08:50:20.329Z,2.80
2019-03-30T08:52:49.329Z,1.62
2019-03-30T08:55:18.842Z,2.87
2019-03-30T08:57:47.801Z,3.65
2019-03-30T09:00:25.801Z,3.75
2019-03-30T09:02:58.961Z,3.87
2019-03-30T09:05:28.217Z,1.25
2019-03-30T09:07:58.845Z,4.72
2019-03-30T09:10:28.097Z,1.67
2019-03-30T09:12:57.209Z,2.83
2019-03-30T09:15:28.065Z,2.95
2019-03-30T09:17:57.322Z,1.92
2019-03-30T09:20:26.956Z,2.52
2019-03-30T09:22:56.665Z,1.92
2019-03-30T09:25:26.921Z,11.45
2019-03-30T09:27:56.274Z,8.58
2019-03-30T09:30:26.872Z,3.80
2019-03-30T09:32:56.617Z,4.33
2019-03-30T09:35:25.826Z,7.95
2019-03-30T09:37:54.970Z,8.23
2019-03-30T09:40:24.490Z,3.95
2019-03-30T09:42:54.445Z,3.60
2019-03-30T09:45:23.762Z,5.62
2019-03-30T09:47:53.608Z,4.37
2019-03-30T09:50:23.698Z,4.45
2019-03-30T09:52:53.173Z,6.08
2019-03-30T09:55:22.587Z,2.05
2019-03-30T09:57:51.929Z,3.47
2019-03-30T10:00:21.282Z,2.90
2019-03-30T10:02:50.832Z,4.35
2019-03-30T10:05:20.610Z,2.95
2019-03-30T10:07:57.658Z,6.35
2019-03-30T10:10:26.984Z,4.00
2019-03-30T10:12:56.304Z,3.30
2019-03-30T10:15:25.729Z,5.05
2019-03-30T10:17:55.210Z,9.83
2019-03-30T10:20:24.563Z,3.12
2019-03-30T10:22:53.912Z,4.75
2019-03-30T10:25:23.192Z,3.35
2019-03-30T10:27:53.042Z,3.27
2019-03-30T10:30:24.850Z,3.47
2019-03-30T10:32:54.106Z,8.63
2019-03-30T10:35:23.433Z,2.60
2019-03-30T10:37:52.921Z,5.37
2019-03-30T10:40:22.305Z,7.30
2019-03-30T10:42:51.523Z,3.70
2019-03-30T10:45:20.939Z,5.70
2019-03-30T10:47:50.417Z,4.72
2019-03-30T10:50:19.913Z,3.27
2019-03-30T10:52:49.530Z,5.72
2019-03-30T10:55:19.066Z,5.78
2019-03-30T10:57:48.640Z,6.55
2019-03-30T11:00:21.037Z,3.10
2019-03-30T11:02:50.170Z,7.00
2019-03-30T11:05:19.505Z,6.87
2019-03-30T11:07:48.729Z,3.60
2019-03-30T11:10:17.712Z,6.83
2019-03-30T11:12:46.851Z,5.12
2019-03-30T11:15:16.158Z,11.15
2019-03-30T11:17:45.761Z,4.83
2019-03-30T11:20:15.080Z,3.50
2019-03-30T11:22:44.785Z,6.97
2019-03-30T11:25:14.024Z,7.28
2019-03-30T11:27:43.276Z,3.00
2019-03-30T11:30:12.985Z,5.05
2019-03-30T11:32:42.712Z,5.67
2019-03-30T11:35:12.235Z,3.90
2019-03-30T11:37:41.544Z,2.77
2019-03-30T11:40:11.184Z,4.10
2019-03-30T11:42:40.285Z,6.28
2019-03-30T11:45:10.088Z,5.28
2019-03-30T11:47:39.263Z,6.12
2019-03-30T11:50:11.286Z,4.03
2019-03-30T11:52:40.880Z,3.02
2019-03-30T11:55:21.807Z,2.95
2019-03-30T11:57:42.873Z,2.20
2019-03-30T12:00:12.448Z,7.17
2019-03-30T12:02:41.864Z,3.87
2019-03-30T12:05:11.674Z,3.40
2019-03-30T12:07:40.769Z,6.12
2019-03-30T12:10:10.176Z,3.55
2019-03-30T12:12:39.264Z,6.15
2019-03-30T12:15:09.594Z,2.87
2019-03-30T12:17:41.107Z,4.30
2019-03-30T12:20:11.210Z,5.50
2019-03-30T12:22:40.475Z,7.95
2019-03-30T12:25:13.304Z,9.93
2019-03-30T12:27:42.512Z,3.20
2019-03-30T12:30:11.969Z,5.00
2019-03-30T12:32:41.345Z,9.50
2019-03-30T12:35:11.664Z,5.28
2019-03-30T12:37:41.438Z,2.55
2019-03-30T12:40:11.194Z,4.58
2019-03-30T12:42:40.488Z,2.00
2019-03-30T12:45:13.346Z,4.58
2019-03-30T12:47:42.596Z,6.55
2019-03-30T12:50:12.233Z,4.50
2019-03-30T12:52:41.584Z,5.17
2019-03-30T12:55:10.705Z,5.08
2019-03-30T12:57:40.394Z,3.60
2019-03-30T13:00:11.162Z,5.85
2019-03-30T13:02:40.386Z,2.87
2019-03-30T13:05:09.705Z,5.37
2019-03-30T13:07:38.786Z,3.85
2019-03-30T13:10:08.401Z,4.00
2019-03-30T13:12:37.346Z,3.50
2019-03-30T13:15:08.464Z,9.13
2019-03-30T13:17:37.595Z,2.85
2019-03-30T13:20:08.080Z,4.60
2019-03-30T13:22:37.144Z,7.08
2019-03-30T13:25:06.920Z,6.42
2019-03-30T13:27:35.832Z,6.42
2019-03-30T13:30:07.177Z,5.12
2019-03-30T13:32:36.161Z,6.65
2019-03-30T13:35:05.753Z,5.28
2019-03-30T13:37:36.353Z,6.67
2019-03-30T13:40:08.465Z,6.40
2019-03-30T13:42:37.619Z,3.08
2019-03-30T13:45:07.650Z,4.40
2019-03-30T13:47:36.787Z,4.37
2019-03-30T13:50:07.225Z,9.15
2019-03-30T13:52:36.289Z,7.62
2019-03-30T13:55:08.210Z,3.90
2019-03-30T13:57:39.058Z,3.20
2019-03-30T14:00:09.299Z,6.12
2019-03-30T14:02:39.218Z,5.87
2019-03-30T14:05:09.635Z,6.20
2019-03-30T14:07:39.379Z,7.58
2019-03-30T14:10:10.202Z,11.75
2019-03-30T14:12:40.274Z,11.25
2019-03-30T14:15:10.361Z,10.78
2019-03-30T14:17:40.874Z,9.35
2019-03-30T14:20:11.242Z,8.18
2019-03-30T14:22:41.465Z,7.90
2019-03-30T14:25:12.167Z,10.03
2019-03-30T14:27:41.660Z,13.85
2019-03-30T14:30:12.438Z,9.68
2019-03-30T14:32:41.689Z,11.95
2019-03-30T14:35:11.715Z,11.40
2019-03-30T14:37:40.777Z,15.58
2019-03-30T14:40:10.393Z,10.00
2019-03-30T14:42:39.490Z,9.25
2019-03-30T14:45:11.348Z,15.15
2019-03-30T14:47:40.924Z,8.03
2019-03-30T14:50:10.949Z,4.78
2019-03-30T14:52:40.091Z,13.35
2019-03-30T14:55:11.450Z,4.62
2019-03-30T14:57:40.777Z,7.05
2019-03-30T15:00:11.988Z,10.48
2019-03-30T15:02:41.601Z,7.45
2019-03-30T15:05:10.769Z,3.90
2019-03-30T15:07:39.948Z,5.87
2019-03-30T15:10:10.985Z,4.62
2019-03-30T15:12:40.229Z,7.17
2019-03-30T15:15:11.144Z,5.00
2019-03-30T15:17:41.288Z,6.58
2019-03-30T15:20:11.608Z,5.37
2019-03-30T15:22:42.702Z,6.40
2019-03-30T15:25:12.661Z,10.88
2019-03-30T15:27:43.410Z,13.90
2019-03-30T15:30:13.250Z,9.13
2019-03-30T15:32:42.994Z,10.03
2019-03-30T15:35:12.361Z,11.50
2019-03-30T15:37:41.608Z,7.78
2019-03-30T15:40:12.228Z,10.72
2019-03-30T15:42:41.601Z,11.53
2019-03-30T15:45:11.160Z,9.20
2019-03-30T15:47:40.417Z,9.23
2019-03-30T15:50:10.787Z,16.70
2019-03-30T15:52:39.866Z,8.90
2019-03-30T15:55:09.774Z,12.03
2019-03-30T15:57:39.145Z,7.75
2019-03-30T16:00:11.001Z,11.90
2019-03-30T16:02:40.729Z,9.30
2019-03-30T16:05:10.018Z,14.40
2019-03-30T16:07:39.164Z,11.85
2019-03-30T16:10:09.015Z,12.18
2019-03-30T16:12:38.361Z,7.80
2019-03-30T16:15:07.746Z,5.70
2019-03-30T16:17:37.409Z,15.85
2019-03-30T16:20:08.465Z,12.68
2019-03-30T16:22:37.835Z,13.22
2019-03-30T16:25:07.942Z,17.15
2019-03-30T16:27:39.207Z,9.73
2019-03-30T16:30:08.930Z,5.28
2019-03-30T16:32:37.935Z,12.65
2019-03-30T16:35:07.137Z,10.60
2019-03-30T16:37:36.387Z,8.05
2019-03-30T16:40:06.511Z,9.50
2019-03-30T16:42:36.312Z,10.93
2019-03-30T16:45:08.329Z,9.13
2019-03-30T16:47:37.456Z,10.23
2019-03-30T16:50:08.272Z,10.48
2019-03-30T16:52:41.148Z,9.78
2019-03-30T16:55:12.679Z,19.50
2019-03-30T16:57:44.136Z,16.75
2019-03-30T17:00:12.963Z,8.33
2019-03-30T17:02:42.467Z,12.10
2019-03-30T17:05:11.698Z,9.38
2019-03-30T17:07:41.001Z,7.03
2019-03-30T17:10:10.754Z,10.20
2019-03-30T17:12:40.162Z,12.13
2019-03-30T17:15:09.735Z,11.55
2019-03-30T17:17:38.844Z,10.20
2019-03-30T17:20:09.025Z,17.10
2019-03-30T17:22:39.802Z,12.58
2019-03-30T17:25:09.049Z,11.80
2019-03-30T17:27:38.410Z,9.58
2019-03-30T17:30:10.598Z,11.75
2019-03-30T17:32:39.716Z,11.85
2019-03-30T17:35:09.748Z,12.23
2019-03-30T17:37:38.890Z,10.90
2019-03-30T17:40:09.836Z,11.00
2019-03-30T17:42:39.375Z,10.35
2019-03-30T17:45:10.460Z,9.68
2019-03-30T17:47:40.156Z,10.75
2019-03-30T17:50:09.929Z,8.18
2019-03-30T17:52:44.728Z,9.63
2019-03-30T17:55:16.393Z,8.03
2019-03-30T17:57:45.521Z,13.13
2019-03-30T18:00:19.421Z,10.18
2019-03-30T18:02:48.921Z,18.77
2019-03-30T18:05:18.137Z,13.72
2019-03-30T18:07:47.442Z,20.00
2019-03-30T18:10:16.685Z,12.53
2019-03-30T18:12:45.937Z,15.08
2019-03-30T18:15:18.225Z,15.40
2019-03-30T18:17:47.291Z,12.60
2019-03-30T18:20:16.641Z,18.20
2019-03-30T18:22:45.882Z,17.10
2019-03-30T18:25:17.194Z,12.80
2019-03-30T18:27:46.633Z,16.80
2019-03-30T18:30:16.834Z,14.95
2019-03-30T18:32:46.545Z,16.30
2019-03-30T18:35:15.745Z,18.20
2019-03-30T18:37:44.888Z,17.62
2019-03-30T18:40:16.929Z,16.62
2019-03-30T18:42:46.290Z,13.83
2019-03-30T18:45:18.538Z,19.80
2019-03-30T18:47:48.354Z,17.82
2019-03-30T18:50:17.786Z,16.25
2019-03-30T18:52:47.309Z,17.73
2019-03-30T18:55:19.403Z,20.43
2019-03-30T18:57:48.722Z,33.70
2019-03-30T19:00:20.754Z,13.68
2019-03-30T19:02:50.065Z,13.22
2019-03-30T19:05:19.641Z,14.63
2019-03-30T19:07:49.682Z,11.08
2019-03-30T19:10:18.988Z,16.40
2019-03-30T19:12:48.674Z,18.00
2019-03-30T19:15:18.540Z,17.25
2019-03-30T19:17:48.089Z,10.35
2019-03-30T19:20:18.131Z,12.15
2019-03-30T19:22:48.818Z,12.10
2019-03-30T19:25:19.560Z,15.20
2019-03-30T19:27:49.048Z,19.60
2019-03-30T19:30:20.874Z,14.47
2019-03-30T19:32:50.641Z,21.65
2019-03-30T19:35:20.882Z,14.18
2019-03-30T19:37:51.074Z,15.58
2019-03-30T19:40:20.425Z,18.17
2019-03-30T19:42:49.763Z,10.18
2019-03-30T19:45:22.266Z,13.32
2019-03-30T19:47:52.025Z,9.55
2019-03-30T19:50:21.442Z,6.80
2019-03-30T19:52:50.716Z,18.15
2019-03-30T19:55:20.217Z,9.60
2019-03-30T19:57:49.769Z,13.25
2019-03-30T20:00:24.226Z,11.43
2019-03-30T20:02:54.050Z,12.00
2019-03-30T20:05:25.147Z,10.45
2019-03-30T20:07:55.202Z,16.35
2019-03-30T20:10:27.851Z,10.25
2019-03-30T20:13:09.117Z,26.55
2019-03-30T20:15:37.386Z,13.18
2019-03-30T20:18:07.497Z,31.77
2019-03-30T20:20:37.098Z,15.65
2019-03-30T20:23:07.274Z,14.75
2019-03-30T20:25:36.649Z,18.75
2019-03-30T20:28:06.409Z,14.68
2019-03-30T20:30:36.002Z,15.72
2019-03-30T20:33:06.440Z,18.35
2019-03-30T20:35:36.419Z,11.73
2019-03-30T20:38:06.264Z,21.40
2019-03-30T20:40:36.353Z,14.55
2019-03-30T20:43:06.303Z,12.82
2019-03-30T20:45:37.913Z,24.87
2019-03-30T20:48:07.634Z,13.72
2019-03-30T20:50:38.361Z,23.00
2019-03-30T20:53:08.017Z,9.40
2019-03-30T20:55:38.003Z,16.23
2019-03-30T20:58:07.256Z,12.45
2019-03-30T21:00:37.121Z,18.23
2019-03-30T21:03:09.545Z,9.05
2019-03-30T21:05:39.402Z,15.30
2019-03-30T21:08:09.033Z,16.12
2019-03-30T21:10:38.633Z,18.67
2019-03-30T21:13:08.361Z,16.80
2019-03-30T21:15:38.136Z,21.05
2019-03-30T21:18:07.769Z,21.35
2019-03-30T21:20:37.505Z,18.55
2019-03-30T21:23:07.064Z,21.50
2019-03-30T21:25:37.880Z,17.15
2019-03-30T21:28:07.410Z,13.95
2019-03-30T21:30:37.633Z,18.70
2019-03-30T21:33:07.445Z,14.28
2019-03-30T21:35:36.991Z,13.50
2019-03-30T21:38:06.803Z,12.15
2019-03-30T21:40:36.627Z,16.37
2019-03-30T21:43:06.017Z,13.72
2019-03-30T21:45:36.635Z,9.35
2019-03-30T21:48:06.636Z,11.75
2019-03-30T21:50:35.940Z,8.00
2019-03-30T21:53:07.498Z,6.92
2019-03-30T21:55:37.298Z,8.60
2019-03-30T21:58:06.978Z,8.20
2019-03-30T22:00:38.330Z,12.03
2019-03-30T22:03:08.145Z,11.93
2019-03-30T22:05:37.513Z,11.60
2019-03-30T22:08:07.058Z,16.12
2019-03-30T22:10:36.954Z,15.05
2019-03-30T22:13:06.774Z,8.18
2019-03-30T22:15:36.073Z,7.85
2019-03-30T22:18:05.425Z,3.87
2019-03-30T22:20:35.113Z,12.25
2019-03-30T22:23:04.830Z,9.03
2019-03-30T22:25:34.797Z,10.03
2019-03-30T22:28:04.291Z,9.55
2019-03-30T22:30:33.962Z,5.72
2019-03-30T22:33:03.346Z,5.92
2019-03-30T22:35:32.715Z,4.95
2019-03-30T22:38:01.961Z,6.22
2019-03-30T22:40:31.949Z,5.72
2019-03-30T22:43:01.242Z,3.12
2019-03-30T22:45:30.552Z,11.73
2019-03-30T22:47:59.994Z,8.93
2019-03-30T22:50:30.577Z,6.42
2019-03-30T22:53:00.185Z,4.45
2019-03-30T22:55:29.529Z,4.47
2019-03-30T22:58:00.066Z,4.80
2019-03-30T23:00:43.345Z,5.83
2019-03-30T23:03:13.139Z,4.80
2019-03-30T23:05:42.273Z,5.80
2019-03-30T23:08:12.091Z,5.90
2019-03-30T23:10:41.955Z,2.33
2019-03-30T23:13:11.317Z,3.45
2019-03-30T23:15:40.562Z,2.42
2019-03-30T23:18:10.194Z,1.10
2019-03-30T23:20:39.623Z,2.17
2019-03-30T23:23:09.330Z,3.20
2019-03-30T23:25:38.609Z,1.82
2019-03-30T23:28:09.307Z,3.70
2019-03-30T23:30:53.124Z,1.07
2019-03-30T23:33:10.193Z,3.35
2019-03-30T23:35:39.578Z,2.35
2019-03-30T23:38:08.945Z,0.70
2019-03-30T23:40:38.529Z,2.17
2019-03-30T23:43:09.897Z,3.22
2019-03-30T23:45:39.226Z,1.55
2019-03-30T23:48:09.752Z,1.17
2019-03-30T23:50:38.770Z,4.20
2019-03-30T23:53:08.488Z,2.20
2019-03-30T23:55:37.880Z,2.37
2019-03-30T23:58:07.304Z,2.10
